createdAt,value
2019-03-31T00:00:15.759Z,2.588
2019-03-31T00:03:15.767Z,0.950
2019-03-31T00:06:15.468Z,1.350
2019-03-31T00:09:15.428Z,1.275
2019-03-31T00:12:15.251Z,1.312
2019-03-31T00:15:15.011Z,5.312
2019-03-31T00:18:15.814Z,3.487
2019-03-31T00:21:15.616Z,5.000
2019-03-31T00:24:15.185Z,11.000
2019-03-31T00:27:15.682Z,2.612
2019-03-31T00:30:15.412Z,3.138
2019-03-31T00:33:15.262Z,2.788
2019-03-31T00:36:15.866Z,5.787
2019-03-31T00:39:15.571Z,2.438
2019-03-31T00:42:15.166Z,3.725
2019-03-31T00:45:15.755Z,4.400
2019-03-31T00:48:15.495Z,3.362
2019-03-31T00:51:15.130Z,2.800
2019-03-31T00:54:15.804Z,10.225
2019-03-31T00:57:15.370Z,1.300
2019-03-31T01:00:14.958Z,1.213
2019-03-31T01:03:15.624Z,3.013
2019-03-31T01:06:15.243Z,2.100
2019-03-31T01:09:16.035Z,1.050
2019-03-31T01:12:15.679Z,2.575
2019-03-31T01:15:15.243Z,1.962
2019-03-31T01:18:15.006Z,4.050
2019-03-31T01:21:15.709Z,2.075
2019-03-31T01:24:15.667Z,1.412
2019-03-31T01:27:15.253Z,3.288
2019-03-31T01:30:15.956Z,2.300
2019-03-31T01:33:15.533Z,2.075
2019-03-31T01:36:15.303Z,2.675
2019-03-31T01:39:15.905Z,0.750
2019-03-31T01:42:15.501Z,1.575
2019-03-31T01:45:15.477Z,3.550
2019-03-31T01:48:15.626Z,2.188
2019-03-31T01:51:15.118Z,2.150
2019-03-31T01:54:15.623Z,4.350
2019-03-31T01:57:15.193Z,1.425
2019-03-31T02:00:15.789Z,1.888
2019-03-31T02:03:15.430Z,2.087
2019-03-31T02:06:15.084Z,4.738
2019-03-31T02:09:15.619Z,2.725
2019-03-31T02:12:15.132Z,4.000
2019-03-31T02:15:15.766Z,3.462
2019-03-31T02:18:15.481Z,2.787
2019-03-31T02:21:15.047Z,1.737
2019-03-31T02:24:15.914Z,2.787
2019-03-31T02:27:15.564Z,2.200
2019-03-31T02:30:15.150Z,3.338
2019-03-31T02:33:15.633Z,2.462
2019-03-31T02:36:15.513Z,3.912
2019-03-31T02:39:15.127Z,1.712
2019-03-31T02:42:15.856Z,2.575
2019-03-31T02:45:15.397Z,2.312
2019-03-31T02:48:15.821Z,3.288
2019-03-31T02:51:15.290Z,1.838
2019-03-31T02:54:15.090Z,2.025
2019-03-31T02:57:15.507Z,3.275
2019-03-31T03:00:15.912Z,3.987
2019-03-31T03:03:15.620Z,1.325
2019-03-31T03:06:15.285Z,2.975
2019-03-31T03:09:15.224Z,4.512
2019-03-31T03:12:15.140Z,1.888
2019-03-31T03:15:15.933Z,1.775
2019-03-31T03:18:15.641Z,2.837
2019-03-31T03:21:15.325Z,2.150
2019-03-31T03:24:15.949Z,5.337
2019-03-31T03:27:15.666Z,1.988
2019-03-31T03:30:15.636Z,2.812
2019-03-31T03:33:17.692Z,3.963
2019-03-31T03:36:15.947Z,1.750
2019-03-31T03:39:15.542Z,1.562
2019-03-31T03:42:15.361Z,2.675
2019-03-31T03:45:15.935Z,4.987
2019-03-31T03:48:15.607Z,2.125
2019-03-31T03:51:15.234Z,1.425
2019-03-31T03:54:15.808Z,5.525
2019-03-31T03:57:15.759Z,2.888
2019-03-31T04:00:15.367Z,2.162
2019-03-31T04:03:29.147Z,2.587
2019-03-31T04:06:15.756Z,2.862
2019-03-31T04:09:15.407Z,4.037
2019-03-31T04:12:15.183Z,3.975
2019-03-31T04:15:14.975Z,1.100
2019-03-31T04:18:15.940Z,2.287
2019-03-31T04:21:15.639Z,2.962
2019-03-31T04:24:15.403Z,2.663
2019-03-31T04:27:18.936Z,3.100
2019-03-31T04:30:15.189Z,2.612
2019-03-31T04:33:14.961Z,2.625
2019-03-31T04:36:15.257Z,3.487
2019-03-31T04:39:14.962Z,2.212
2019-03-31T04:42:15.883Z,3.638
2019-03-31T04:45:15.686Z,3.400
2019-03-31T04:48:15.611Z,3.688
2019-03-31T04:51:15.437Z,4.362
2019-03-31T04:54:15.322Z,1.887
2019-03-31T04:57:15.087Z,1.788
2019-03-31T05:00:16.080Z,2.500
2019-03-31T05:03:15.181Z,3.600
2019-03-31T05:06:15.829Z,2.000
2019-03-31T05:09:15.484Z,3.513
2019-03-31T05:12:16.882Z,3.200
2019-03-31T05:15:15.757Z,2.500
2019-03-31T05:18:15.492Z,2.750
2019-03-31T05:21:15.267Z,2.125
2019-03-31T05:24:16.131Z,2.175
2019-03-31T05:27:15.849Z,2.775
2019-03-31T05:30:15.589Z,1.462
2019-03-31T05:33:15.187Z,3.200
2019-03-31T05:36:15.869Z,3.025
2019-03-31T05:39:15.559Z,3.112
2019-03-31T05:42:15.282Z,2.325
2019-03-31T05:45:15.056Z,4.775
2019-03-31T05:48:15.789Z,2.925
2019-03-31T05:51:15.479Z,2.175
2019-03-31T05:54:15.156Z,3.762
2019-03-31T05:57:15.945Z,1.675
2019-03-31T06:00:15.601Z,1.475
2019-03-31T06:03:15.638Z,1.712
2019-03-31T06:06:15.313Z,3.150
2019-03-31T06:09:15.907Z,2.500
2019-03-31T06:12:15.572Z,6.287
2019-03-31T06:15:15.295Z,2.200
2019-03-31T06:18:15.038Z,2.575
2019-03-31T06:21:15.554Z,1.325
2019-03-31T06:24:15.361Z,2.050
2019-03-31T06:27:15.915Z,1.312
2019-03-31T06:30:15.786Z,4.175
2019-03-31T06:33:15.439Z,1.637
2019-03-31T06:36:15.104Z,3.925
2019-03-31T06:39:15.776Z,2.038
2019-03-31T06:42:15.557Z,2.550
2019-03-31T06:45:15.433Z,2.913
2019-03-31T06:48:15.122Z,3.650
2019-03-31T06:51:17.223Z,3.312
2019-03-31T06:54:15.084Z,4.750
2019-03-31T06:57:15.815Z,1.962
2019-03-31T07:00:15.683Z,1.700
2019-03-31T07:03:15.395Z,3.650
2019-03-31T07:06:15.044Z,3.475
2019-03-31T07:09:15.986Z,2.462
2019-03-31T07:12:15.801Z,2.163
2019-03-31T07:15:15.463Z,4.788
2019-03-31T07:18:16.053Z,3.112
2019-03-31T07:21:15.770Z,2.200
2019-03-31T07:24:15.628Z,2.800
2019-03-31T07:27:15.310Z,1.950
2019-03-31T07:30:15.360Z,4.500
2019-03-31T07:33:15.176Z,3.625
2019-03-31T07:36:15.076Z,4.288
2019-03-31T07:39:15.740Z,4.850
2019-03-31T07:42:15.208Z,3.662
2019-03-31T07:45:15.453Z,1.013
2019-03-31T07:48:15.693Z,5.088
2019-03-31T07:51:15.744Z,9.887
2019-03-31T07:54:15.488Z,7.437
2019-03-31T07:57:15.097Z,11.988
2019-03-31T08:00:15.812Z,4.700
2019-03-31T08:03:15.823Z,9.762
2019-03-31T08:06:15.611Z,6.863
2019-03-31T08:09:15.191Z,6.350
2019-03-31T08:12:15.673Z,6.513
2019-03-31T08:15:15.445Z,4.112
2019-03-31T08:18:15.329Z,5.200
2019-03-31T08:21:15.397Z,36.975
2019-03-31T08:24:15.012Z,6.325
2019-03-31T08:27:14.979Z,7.138
2019-03-31T08:30:15.371Z,9.275
2019-03-31T08:33:15.315Z,4.050
2019-03-31T08:36:15.241Z,12.475
2019-03-31T08:39:16.011Z,9.325
2019-03-31T08:42:15.071Z,10.600
2019-03-31T08:45:15.122Z,9.312
2019-03-31T08:48:15.345Z,7.712
2019-03-31T08:51:15.135Z,11.475
2019-03-31T08:54:15.940Z,5.950
2019-03-31T08:57:15.543Z,4.125
2019-03-31T09:00:15.260Z,6.650
2019-03-31T09:03:15.939Z,8.850
2019-03-31T09:06:15.718Z,7.338
2019-03-31T09:09:15.540Z,13.387
2019-03-31T09:12:15.463Z,11.413
2019-03-31T09:15:15.131Z,8.575
2019-03-31T09:18:15.971Z,12.775
2019-03-31T09:21:15.672Z,6.787
2019-03-31T09:24:15.577Z,6.650
2019-03-31T09:27:15.395Z,11.613
2019-03-31T09:30:15.380Z,13.475
2019-03-31T09:33:15.350Z,6.963
2019-03-31T09:36:16.813Z,5.263
2019-03-31T09:39:15.628Z,11.425
2019-03-31T09:42:15.446Z,13.150
2019-03-31T09:45:15.444Z,12.212
2019-03-31T09:48:15.210Z,8.838
2019-03-31T09:51:15.206Z,6.025
2019-03-31T09:54:15.596Z,6.763
2019-03-31T09:57:15.369Z,9.637
2019-03-31T10:00:15.080Z,12.225
2019-03-31T10:03:15.752Z,11.075
2019-03-31T10:06:29.310Z,17.637
2019-03-31T10:09:15.769Z,11.800
2019-03-31T10:12:15.625Z,6.138
2019-03-31T10:15:15.836Z,11.700
2019-03-31T10:18:18.181Z,9.925
2019-03-31T10:21:15.280Z,15.688
2019-03-31T10:24:15.049Z,16.663
2019-03-31T10:27:15.920Z,9.612
2019-03-31T10:30:15.932Z,7.350
2019-03-31T10:33:15.939Z,12.787
2019-03-31T10:36:15.093Z,13.613
2019-03-31T10:39:15.867Z,6.325
2019-03-31T10:42:15.793Z,6.338
2019-03-31T10:45:20.834Z,6.337
2019-03-31T10:48:20.934Z,10.363
2019-03-31T10:51:16.320Z,12.025
2019-03-31T11:30:15.932Z,12.588
2019-03-31T11:33:15.049Z,6.125
2019-03-31T11:42:15.960Z,6.012
2019-03-31T11:45:15.798Z,10.488
2019-03-31T11:48:15.044Z,4.588
2019-03-31T11:51:15.160Z,10.763
2019-03-31T11:54:15.128Z,18.000
2019-03-31T11:57:17.704Z,7.675
2019-03-31T12:00:15.749Z,10.613
2019-03-31T12:03:15.134Z,13.288
2019-03-31T12:06:15.127Z,7.537
2019-03-31T12:09:15.984Z,10.525
2019-03-31T12:12:15.937Z,12.350
2019-03-31T12:15:15.847Z,8.175
2019-03-31T12:18:15.734Z,7.000
2019-03-31T12:21:15.516Z,8.775
2019-03-31T12:24:15.534Z,12.087
2019-03-31T12:27:15.336Z,6.725
2019-03-31T12:30:15.055Z,4.150
2019-03-31T12:33:15.521Z,7.862
2019-03-31T12:36:15.551Z,5.350
2019-03-31T12:39:15.491Z,10.925
2019-03-31T12:42:15.349Z,4.412
2019-03-31T12:45:15.264Z,7.438
2019-03-31T12:48:15.272Z,9.762
2019-03-31T12:51:15.321Z,6.237
2019-03-31T12:54:15.275Z,10.438
2019-03-31T12:57:15.300Z,10.650
2019-03-31T13:00:15.196Z,4.900
2019-03-31T13:03:16.240Z,6.438
2019-03-31T13:06:15.400Z,4.600
2019-03-31T13:09:15.269Z,10.288
2019-03-31T13:12:15.291Z,7.475
2019-03-31T13:15:15.068Z,9.975
2019-03-31T13:18:15.959Z,7.162
2019-03-31T13:21:15.799Z,7.750
2019-03-31T13:24:15.770Z,10.700
2019-03-31T13:27:15.533Z,10.188
2019-03-31T13:30:15.610Z,7.112
2019-03-31T13:33:15.761Z,11.825
2019-03-31T13:36:15.737Z,6.925
2019-03-31T13:39:15.802Z,11.812
2019-03-31T13:42:15.842Z,6.537
2019-03-31T13:45:15.950Z,6.200
2019-03-31T13:48:16.145Z,4.213
2019-03-31T13:51:15.141Z,8.425
2019-03-31T13:54:15.246Z,9.700
2019-03-31T13:57:16.272Z,14.025
2019-03-31T14:00:15.129Z,9.662
2019-03-31T14:03:15.844Z,8.600
2019-03-31T14:06:15.953Z,8.275
2019-03-31T14:09:15.505Z,11.725
2019-03-31T14:12:15.598Z,8.600
2019-03-31T14:15:19.445Z,6.850
2019-03-31T14:18:15.097Z,7.338
2019-03-31T14:21:14.962Z,9.900
2019-03-31T14:24:15.085Z,10.825
2019-03-31T14:27:15.915Z,11.075
2019-03-31T14:30:15.869Z,10.913
2019-03-31T14:33:15.741Z,10.250
2019-03-31T14:36:15.662Z,9.275
2019-03-31T14:39:17.148Z,7.762
2019-03-31T14:42:15.045Z,7.100
2019-03-31T14:45:15.928Z,10.787
2019-03-31T14:48:15.584Z,8.875
2019-03-31T14:51:15.349Z,9.137
2019-03-31T14:54:15.032Z,10.488
2019-03-31T14:57:15.018Z,12.025
2019-03-31T15:00:15.886Z,11.337
2019-03-31T15:03:18.153Z,9.875
2019-03-31T15:06:15.105Z,13.275
2019-03-31T15:09:15.125Z,12.888
2019-03-31T15:12:15.972Z,11.700
2019-03-31T15:15:15.829Z,7.987
2019-03-31T15:18:15.666Z,9.537
2019-03-31T15:21:15.728Z,13.125
2019-03-31T15:24:15.981Z,9.000
2019-03-31T15:27:15.027Z,11.275
2019-03-31T15:30:15.141Z,10.463
2019-03-31T15:33:15.096Z,13.562
2019-03-31T15:36:15.053Z,13.237
2019-03-31T15:39:15.743Z,13.050
2019-03-31T15:42:15.745Z,15.275
2019-03-31T15:45:15.777Z,27.125
2019-03-31T15:48:15.846Z,17.038
2019-03-31T15:51:16.018Z,19.863
2019-03-31T15:54:15.071Z,19.600
2019-03-31T15:57:15.186Z,12.550
2019-03-31T16:00:15.435Z,13.588
2019-03-31T16:03:15.496Z,10.588
2019-03-31T16:06:15.505Z,27.337
2019-03-31T16:09:23.380Z,27.087
2019-03-31T16:12:15.380Z,21.538
2019-03-31T16:15:15.331Z,14.150
2019-03-31T16:18:15.629Z,21.925
2019-03-31T16:21:15.923Z,16.875
2019-03-31T16:24:15.379Z,22.550
2019-03-31T16:27:15.025Z,36.900
2019-03-31T16:30:15.317Z,16.138
2019-03-31T16:33:15.684Z,23.750
2019-03-31T16:36:29.614Z,18.062
2019-03-31T16:48:15.919Z,29.862
2019-03-31T16:51:15.796Z,27.375
2019-03-31T16:54:21.879Z,26.488
2019-03-31T16:57:15.176Z,29.262
2019-03-31T17:00:15.529Z,21.225
2019-03-31T17:03:18.195Z,19.188
2019-03-31T17:06:15.915Z,20.262
2019-03-31T17:09:15.949Z,22.850
2019-03-31T17:12:15.983Z,26.750
2019-03-31T17:15:15.457Z,26.562
2019-03-31T17:18:15.484Z,23.362
2019-03-31T17:21:15.425Z,20.037
2019-03-31T17:24:20.451Z,23.600
2019-03-31T17:27:17.087Z,19.812
2019-03-31T17:31:46.461Z,27.375
2019-03-31T17:33:20.561Z,26.163
2019-03-31T17:36:32.335Z,14.975
2019-03-31T17:39:26.693Z,26.950
2019-03-31T17:42:16.472Z,16.188
2019-03-31T17:45:23.549Z,15.487
2019-03-31T17:48:28.934Z,22.562
2019-03-31T17:51:42.723Z,55.938
2019-03-31T18:42:15.528Z,27.562
2019-03-31T18:45:15.525Z,21.075
2019-03-31T18:48:15.341Z,22.600
2019-03-31T18:51:15.333Z,12.613
2019-03-31T18:54:15.045Z,11.588
2019-03-31T18:57:15.373Z,15.312
2019-03-31T19:00:15.633Z,11.512
2019-03-31T19:03:15.911Z,11.675
2019-03-31T19:06:15.143Z,18.800
2019-03-31T19:09:15.908Z,10.713
2019-03-31T19:12:15.844Z,13.438
2019-03-31T19:15:15.810Z,10.762
2019-03-31T19:18:16.055Z,10.175
2019-03-31T19:21:15.440Z,12.262
2019-03-31T19:24:15.535Z,17.950
2019-03-31T19:27:15.654Z,11.200
2019-03-31T19:30:15.843Z,8.625
2019-03-31T19:33:15.761Z,7.800
2019-03-31T19:36:15.879Z,10.338
2019-03-31T19:39:15.186Z,8.700
2019-03-31T19:42:15.792Z,12.562
2019-03-31T19:45:15.123Z,11.838
2019-03-31T19:48:15.655Z,7.550
2019-03-31T19:51:15.821Z,11.438
2019-03-31T19:54:15.746Z,18.238
2019-03-31T19:57:15.740Z,22.637
2019-03-31T20:00:15.556Z,7.950
2019-03-31T20:03:15.337Z,7.713
2019-03-31T20:06:15.646Z,9.588
2019-03-31T20:09:15.441Z,8.362
2019-03-31T20:12:15.243Z,8.912
2019-03-31T20:15:15.889Z,11.562
2019-03-31T20:18:15.373Z,5.350
2019-03-31T20:21:15.756Z,8.612
2019-03-31T20:24:15.159Z,9.188
2019-03-31T20:27:15.588Z,8.688
2019-03-31T20:30:15.252Z,28.462
2019-03-31T20:33:15.843Z,5.975
2019-03-31T20:36:15.334Z,10.375
2019-03-31T20:39:15.254Z,6.188
2019-03-31T20:42:15.885Z,3.887
2019-03-31T20:45:15.663Z,5.600
2019-03-31T20:48:15.514Z,4.275
2019-03-31T20:51:15.215Z,12.000
2019-03-31T20:54:15.891Z,7.388
2019-03-31T20:57:15.574Z,6.713
2019-03-31T21:00:15.493Z,10.975
2019-03-31T21:03:15.174Z,6.938
2019-03-31T21:09:15.243Z,7.625
2019-03-31T21:12:16.062Z,5.525
2019-03-31T21:15:15.361Z,6.775
2019-03-31T21:18:15.161Z,9.150
2019-03-31T21:21:15.776Z,7.375
2019-03-31T21:24:15.384Z,6.750
2019-03-31T21:27:15.037Z,5.850
2019-03-31T21:30:15.658Z,9.950
2019-03-31T21:33:15.376Z,9.662
2019-03-31T21:36:15.369Z,6.213
2019-03-31T21:39:14.988Z,7.763
2019-03-31T21:42:15.855Z,5.425
2019-03-31T21:45:15.400Z,6.262
2019-03-31T21:48:14.953Z,10.100
2019-03-31T21:51:15.707Z,8.337
2019-03-31T21:54:15.278Z,6.325
2019-03-31T21:57:15.874Z,6.137
2019-03-31T22:00:15.362Z,4.638
2019-03-31T22:03:15.557Z,4.000
2019-03-31T22:06:15.316Z,8.350
2019-03-31T22:09:14.971Z,9.725
2019-03-31T22:12:15.749Z,7.025
2019-03-31T22:15:15.290Z,7.700
2019-03-31T22:18:15.141Z,7.012
2019-03-31T22:21:15.832Z,6.862
2019-03-31T22:24:15.712Z,5.900
2019-03-31T22:27:15.310Z,6.412
2019-03-31T22:30:15.294Z,7.987
2019-03-31T22:33:15.006Z,6.000
2019-03-31T22:36:15.887Z,6.925
2019-03-31T22:39:15.686Z,6.562
2019-03-31T22:42:15.349Z,12.962
2019-03-31T22:45:15.040Z,7.438
2019-03-31T22:48:15.652Z,17.925
2019-03-31T22:51:15.190Z,20.450
2019-03-31T22:54:15.947Z,15.338
2019-03-31T22:57:15.534Z,7.513
2019-03-31T23:00:15.112Z,8.200
2019-03-31T23:03:15.625Z,9.325
2019-03-31T23:06:15.098Z,8.037
2019-03-31T23:09:15.616Z,11.662
2019-03-31T23:12:15.666Z,8.438
2019-03-31T23:15:15.200Z,13.475
2019-03-31T23:18:15.780Z,8.238
2019-03-31T23:21:15.324Z,7.713
2019-03-31T23:24:15.874Z,18.038
2019-03-31T23:27:15.494Z,14.000
2019-03-31T23:30:15.085Z,12.062
2019-03-31T23:33:15.695Z,10.738
2019-03-31T23:36:15.207Z,8.913
2019-03-31T23:39:15.680Z,12.325
2019-03-31T23:42:15.129Z,12.875
2019-03-31T23:45:15.660Z,9.762
2019-03-31T23:48:15.880Z,11.413
2019-03-31T23:51:15.363Z,15.488
2019-03-31T23:54:15.827Z,9.387
2019-03-31T23:57:15.404Z,19.075
